createdAt,value
2023-05-15T00:01:17.030Z,100651.61
2023-05-15T00:06:39.977Z,100636.52
2023-05-15T00:12:02.485Z,100631.41
2023-05-15T00:17:25.284Z,100632.41
2023-05-15T00:22:47.998Z,100617.89
2023-05-15T00:28:11.606Z,100611.63
2023-05-15T00:33:34.212Z,100611.78
2023-05-15T00:38:56.842Z,100606.37
2023-05-15T00:44:21.295Z,100588.88
2023-05-15T00:49:45.820Z,100593.72
2023-05-15T00:55:09.164Z,100589.02
2023-05-15T01:00:33.622Z,100581.77
2023-05-15T01:05:56.983Z,100570.95
2023-05-15T01:11:22.224Z,100573.10
2023-05-15T01:16:45.731Z,100569.55
2023-05-15T01:22:38.520Z,100569.25
2023-05-15T01:28:05.733Z,100590.17
2023-05-15T01:33:41.412Z,100581.21
2023-05-15T01:39:10.081Z,100570.26
2023-05-15T01:44:52.287Z,100563.14
2023-05-15T01:50:17.385Z,100564.55
2023-05-15T01:55:42.381Z,100567.83
2023-05-15T02:01:06.220Z,100556.44
2023-05-15T02:06:30.088Z,100535.69
2023-05-15T02:11:53.741Z,100524.17
2023-05-15T02:17:16.785Z,100518.09
2023-05-15T02:22:39.221Z,100506.27
2023-05-15T02:28:10.856Z,100507.81
2023-05-15T02:39:19.847Z,100487.22
2023-05-15T02:44:43.617Z,100489.93
2023-05-15T02:50:06.520Z,100479.98
2023-05-15T02:55:29.607Z,100477.99
2023-05-15T03:00:52.042Z,100455.95
2023-05-15T03:06:14.445Z,100459.36
2023-05-15T03:11:37.170Z,100441.03
2023-05-15T03:16:59.631Z,100443.59
2023-05-15T03:22:22.284Z,100435.91
2023-05-15T03:27:44.651Z,100421.98
2023-05-15T03:33:07.007Z,100430.34
2023-05-15T03:38:29.348Z,100407.33
2023-05-15T03:43:51.611Z,100409.48
2023-05-15T03:49:14.394Z,100396.83
2023-05-15T03:54:36.930Z,100399.08
2023-05-15T03:59:59.288Z,100410.33
2023-05-15T04:05:23.800Z,100383.34
2023-05-15T04:10:46.576Z,100394.28
2023-05-15T04:16:10.408Z,100375.83
2023-05-15T04:21:32.750Z,100383.65
2023-05-15T04:26:55.223Z,100373.11
2023-05-15T04:32:17.747Z,100367.28
2023-05-15T04:37:40.413Z,100367.16
2023-05-15T04:43:04.962Z,100370.72
2023-05-15T04:48:27.587Z,100381.92
2023-05-15T04:53:49.866Z,100374.83
2023-05-15T04:59:14.191Z,100382.23
2023-05-15T05:04:36.497Z,100386.07
2023-05-15T05:09:59.391Z,100376.53
2023-05-15T05:15:23.287Z,100365.31
2023-05-15T05:20:45.877Z,100371.42
2023-05-15T05:26:10.054Z,100348.67
2023-05-15T05:31:33.571Z,100332.48
2023-05-15T05:36:56.531Z,100362.05
2023-05-15T05:42:18.941Z,100373.97
2023-05-15T05:47:41.515Z,100369.42
2023-05-15T05:53:06.880Z,100379.69
2023-05-15T05:58:29.286Z,100391.47
2023-05-15T06:03:52.312Z,100373.53
2023-05-15T06:09:14.772Z,100368.86
2023-05-15T06:14:37.408Z,100367.71
2023-05-15T06:20:00.587Z,100366.14
2023-05-15T06:25:23.755Z,100357.73
2023-05-15T06:30:46.638Z,100364.16
2023-05-15T06:36:09.186Z,100368.87
2023-05-15T06:41:31.488Z,100373.98
2023-05-15T06:46:53.890Z,100373.55
2023-05-15T06:52:16.565Z,100369.16
2023-05-15T06:57:40.020Z,100362.76
2023-05-15T07:03:02.360Z,100351.85
2023-05-15T07:08:24.860Z,100352.11
2023-05-15T07:13:47.554Z,100339.63
2023-05-15T07:19:09.918Z,100321.33
2023-05-15T07:24:32.264Z,100317.20
2023-05-15T07:29:54.588Z,100302.56
2023-05-15T07:35:17.384Z,100297.30
2023-05-15T07:40:40.419Z,100283.06
2023-05-15T07:46:03.060Z,100279.48
2023-05-15T07:51:26.308Z,100269.34
2023-05-15T07:56:49.189Z,100260.92
2023-05-15T08:02:11.486Z,100257.06
2023-05-15T08:07:33.977Z,100233.98
2023-05-15T08:12:56.370Z,100228.15
2023-05-15T08:18:22.061Z,100210.19
2023-05-15T08:23:44.345Z,100206.22
2023-05-15T08:29:06.774Z,100199.13
2023-05-15T08:34:29.106Z,100183.66
2023-05-15T08:39:51.773Z,100179.17
2023-05-15T08:45:15.932Z,100168.52
2023-05-15T08:50:40.951Z,100171.80
2023-05-15T08:56:03.349Z,100164.97
2023-05-15T09:01:27.052Z,100151.03
2023-05-15T09:06:50.292Z,100154.48
2023-05-15T09:12:14.248Z,100142.45
2023-05-15T09:17:37.840Z,100148.98
2023-05-15T09:23:00.229Z,100151.48
2023-05-15T09:28:34.292Z,100146.88
2023-05-15T09:33:59.820Z,100142.20
2023-05-15T09:39:22.147Z,100140.55
2023-05-15T09:44:48.736Z,100134.96
2023-05-15T09:50:12.785Z,100132.34
2023-05-15T09:55:36.727Z,100133.03
2023-05-15T10:01:01.594Z,100126.98
2023-05-15T10:06:25.784Z,100121.48
2023-05-15T10:11:54.784Z,100110.47
2023-05-15T10:17:17.382Z,100106.53
2023-05-15T10:22:43.707Z,100105.66
2023-05-15T10:28:07.512Z,100111.47
2023-05-15T10:33:32.163Z,100101.23
2023-05-15T10:38:55.642Z,100101.23
2023-05-15T10:44:18.925Z,100094.45
2023-05-15T10:49:41.371Z,100092.03
2023-05-15T10:55:06.397Z,100092.19
2023-05-15T11:00:38.546Z,100089.08
2023-05-15T11:06:24.778Z,100081.32
2023-05-15T11:12:07.895Z,100079.88
2023-05-15T11:17:31.071Z,100078.60
2023-05-15T11:22:56.012Z,100067.09
2023-05-15T11:28:20.112Z,100070.94
2023-05-15T11:33:44.436Z,100060.45
2023-05-15T11:39:09.313Z,100047.39
2023-05-15T11:44:33.092Z,100045.02
2023-05-15T11:50:00.122Z,100033.22
2023-05-15T11:55:25.002Z,100032.82
2023-05-15T12:00:48.424Z,100016.07
2023-05-15T12:06:14.180Z,100017.06
2023-05-15T12:11:38.455Z,100021.91
2023-05-15T12:17:04.763Z,100010.53
2023-05-15T12:22:27.827Z,100005.15
2023-05-15T12:27:52.336Z,99994.14
2023-05-15T12:33:17.755Z,99993.84
2023-05-15T12:38:42.687Z,99977.67
2023-05-15T12:44:05.049Z,99978.35
2023-05-15T12:49:29.329Z,99969.87
2023-05-15T12:54:53.489Z,99961.34
2023-05-15T13:00:21.080Z,99963.19
2023-05-15T13:05:45.925Z,99949.98
2023-05-15T13:11:10.741Z,99945.48
2023-05-15T13:16:48.368Z,99928.81
2023-05-15T13:22:11.133Z,99921.58
2023-05-15T13:27:33.748Z,99914.07
2023-05-15T13:32:56.482Z,99902.45
2023-05-15T13:38:19.330Z,99906.30
2023-05-15T13:43:42.783Z,99905.30
2023-05-15T13:49:05.835Z,99887.81
2023-05-15T13:54:29.767Z,99891.05
2023-05-15T13:59:52.770Z,99884.73
2023-05-15T14:05:16.159Z,99885.43
2023-05-15T14:10:38.642Z,99873.50
2023-05-15T14:16:01.170Z,99878.63
2023-05-15T14:21:23.769Z,99875.66
2023-05-15T14:26:46.570Z,99871.55
2023-05-15T14:32:09.340Z,99870.84
2023-05-15T14:37:32.698Z,99863.18
2023-05-15T14:42:56.522Z,99856.79
2023-05-15T14:48:19.290Z,99851.78
2023-05-15T14:53:42.628Z,99848.55
2023-05-15T14:59:05.222Z,99852.69
2023-05-15T15:04:29.754Z,99848.98
2023-05-15T15:09:53.177Z,99844.64
2023-05-15T15:15:16.434Z,99843.64
2023-05-15T15:20:40.532Z,99831.86
2023-05-15T15:26:03.420Z,99824.24
2023-05-15T15:31:29.324Z,99824.24
2023-05-15T15:36:52.619Z,99822.92
2023-05-15T15:42:14.947Z,99819.16
2023-05-15T15:47:37.365Z,99816.31
2023-05-15T15:53:00.527Z,99811.23
2023-05-15T15:58:22.891Z,99802.70
2023-05-15T16:03:45.174Z,99793.77
2023-05-15T16:09:07.957Z,99798.00
2023-05-15T16:14:32.230Z,99783.27
2023-05-15T16:19:54.512Z,99781.98
2023-05-15T16:25:16.989Z,99781.58
2023-05-15T16:30:48.926Z,99775.51
2023-05-15T16:36:05.771Z,99772.72
2023-05-15T16:41:28.484Z,99771.56
2023-05-15T16:46:51.590Z,99760.18
2023-05-15T16:52:14.266Z,99762.11
2023-05-15T16:57:36.764Z,99761.71
2023-05-15T17:03:00.819Z,99760.70
2023-05-15T17:08:23.265Z,99752.70
2023-05-15T17:13:45.887Z,99749.72
2023-05-15T17:19:08.359Z,99750.56
2023-05-15T17:24:46.363Z,99755.55
2023-05-15T17:29:55.690Z,99749.00
2023-05-15T17:35:19.327Z,99744.93
2023-05-15T17:40:41.816Z,99741.55
2023-05-15T17:46:06.116Z,99744.08
2023-05-15T17:51:29.200Z,99750.08
2023-05-15T17:56:51.728Z,99752.62
2023-05-15T18:02:14.356Z,99749.08
2023-05-15T18:07:37.093Z,99746.55
2023-05-15T18:12:59.584Z,99745.53
2023-05-15T18:18:23.304Z,99747.95
2023-05-15T18:23:46.160Z,99750.48
2023-05-15T18:29:09.037Z,99756.16
2023-05-15T18:34:31.554Z,99757.64
2023-05-15T18:39:59.073Z,99762.47
2023-05-15T18:45:22.340Z,99755.39
2023-05-15T18:50:45.947Z,99757.16
2023-05-15T18:56:08.714Z,99772.27
2023-05-15T19:01:31.262Z,99769.84
2023-05-15T19:06:56.444Z,99769.47
2023-05-15T19:12:19.427Z,99778.78
2023-05-15T19:17:41.722Z,99780.78
2023-05-15T19:23:03.978Z,99778.09
2023-05-15T19:28:27.129Z,99778.09
2023-05-15T19:33:50.175Z,99776.23
2023-05-15T19:39:12.460Z,99772.54
2023-05-15T19:44:35.584Z,99766.88
2023-05-15T19:49:57.843Z,99759.47
2023-05-15T19:55:20.463Z,99770.94
2023-05-15T20:00:43.638Z,99764.70
2023-05-15T20:06:07.350Z,99756.94
2023-05-15T20:11:29.664Z,99753.55
2023-05-15T20:16:51.990Z,99750.02
2023-05-15T20:22:14.243Z,99749.02
2023-05-15T20:27:36.590Z,99747.32
2023-05-15T20:32:59.022Z,99750.70
2023-05-15T20:38:21.557Z,99754.24
2023-05-15T20:43:44.257Z,99757.78
2023-05-15T20:49:06.500Z,99768.16
2023-05-15T20:54:29.504Z,99771.28
2023-05-15T20:59:51.729Z,99769.61
2023-05-15T21:05:14.551Z,99775.89
2023-05-15T21:10:36.806Z,99789.43
2023-05-15T21:15:59.878Z,99794.81
2023-05-15T21:21:22.180Z,99796.51
2023-05-15T21:26:44.446Z,99789.43
2023-05-15T21:32:07.113Z,99790.58
2023-05-15T21:37:29.358Z,99788.16
2023-05-15T21:42:52.909Z,99804.31
2023-05-15T21:48:15.178Z,99800.62
2023-05-15T21:53:37.998Z,99807.76
2023-05-15T21:59:00.888Z,99805.34
2023-05-15T22:04:23.302Z,99803.80
2023-05-15T22:09:46.429Z,99809.05
2023-05-15T22:15:08.669Z,99805.81
2023-05-15T22:20:31.499Z,99808.50
2023-05-15T22:25:54.222Z,99808.36
2023-05-15T22:31:16.834Z,99815.03
2023-05-15T22:36:39.785Z,99813.04
2023-05-15T22:42:02.024Z,99812.34
2023-05-15T22:47:24.321Z,99810.61
2023-05-15T22:52:46.804Z,99809.77
2023-05-15T22:58:09.184Z,99817.98
2023-05-15T23:03:31.703Z,99805.69
2023-05-15T23:08:54.099Z,99796.92
2023-05-15T23:14:17.760Z,99803.56
2023-05-15T23:19:39.997Z,99806.70
2023-05-15T23:25:02.349Z,99805.84
2023-05-15T23:30:25.851Z,99807.69
2023-05-15T23:35:48.489Z,99807.55
2023-05-15T23:41:10.710Z,99802.02
2023-05-15T23:46:33.087Z,99808.39
2023-05-15T23:51:56.185Z,99807.39
2023-05-15T23:57:19.097Z,99796.64
